sensor_id;sensor_type;location;lat;lon;timestamp;P1;durP1;ratioP1;P2;durP2;ratioP2
44842;SDS011;31884;52.538;13.820;2023-10-08T00:01:35;5.38;;;1.33;;
44842;SDS011;31884;52.538;13.820;2023-10-08T00:04:05;4.28;;;1.20;;
44842;SDS011;31884;52.538;13.820;2023-10-08T00:06:32;5.78;;;1.10;;
44842;SDS011;31884;52.538;13.820;2023-10-08T00:08:58;5.07;;;1.50;;
44842;SDS011;31884;52.538;13.820;2023-10-08T00:11:36;3.40;;;1.30;;
44842;SDS011;31884;52.538;13.820;2023-10-08T00:14:03;3.90;;;0.93;;
44842;SDS011;31884;52.538;13.820;2023-10-08T00:16:33;2.80;;;0.95;;
44842;SDS011;31884;52.538;13.820;2023-10-08T00:18:59;1.92;;;1.00;;
44842;SDS011;31884;52.538;13.820;2023-10-08T00:21:32;4.32;;;1.20;;
44842;SDS011;31884;52.538;13.820;2023-10-08T00:24:01;2.88;;;1.00;;
44842;SDS011;31884;52.538;13.820;2023-10-08T00:26:30;4.30;;;1.80;;
44842;SDS011;31884;52.538;13.820;2023-10-08T00:28:56;1.92;;;0.88;;
44842;SDS011;31884;52.538;13.820;2023-10-08T00:31:24;3.03;;;1.40;;
44842;SDS011;31884;52.538;13.820;2023-10-08T00:33:57;3.92;;;1.48;;
44842;SDS011;31884;52.538;13.820;2023-10-08T00:36:23;4.13;;;1.55;;
44842;SDS011;31884;52.538;13.820;2023-10-08T00:38:49;6.13;;;1.50;;
44842;SDS011;31884;52.538;13.820;2023-10-08T00:41:17;5.35;;;1.55;;
44842;SDS011;31884;52.538;13.820;2023-10-08T00:43:53;3.03;;;1.45;;
44842;SDS011;31884;52.538;13.820;2023-10-08T00:46:21;8.13;;;1.65;;
44842;SDS011;31884;52.538;13.820;2023-10-08T00:48:54;4.03;;;1.38;;
44842;SDS011;31884;52.538;13.820;2023-10-08T00:51:21;7.82;;;1.60;;
44842;SDS011;31884;52.538;13.820;2023-10-08T00:53:48;4.53;;;1.48;;
44842;SDS011;31884;52.538;13.820;2023-10-08T00:56:17;2.83;;;1.35;;
44842;SDS011;31884;52.538;13.820;2023-10-08T00:58:44;6.90;;;1.38;;
44842;SDS011;31884;52.538;13.820;2023-10-08T01:01:17;7.00;;;2.00;;
44842;SDS011;31884;52.538;13.820;2023-10-08T01:03:45;4.13;;;1.50;;
44842;SDS011;31884;52.538;13.820;2023-10-08T01:06:14;3.40;;;1.27;;
44842;SDS011;31884;52.538;13.820;2023-10-08T01:08:43;10.05;;;2.55;;
44842;SDS011;31884;52.538;13.820;2023-10-08T01:11:21;4.53;;;1.40;;
44842;SDS011;31884;52.538;13.820;2023-10-08T01:13:58;5.75;;;1.77;;
44842;SDS011;31884;52.538;13.820;2023-10-08T01:16:24;5.20;;;1.30;;
44842;SDS011;31884;52.538;13.820;2023-10-08T01:18:52;2.97;;;1.58;;
44842;SDS011;31884;52.538;13.820;2023-10-08T01:21:19;6.80;;;1.80;;
44842;SDS011;31884;52.538;13.820;2023-10-08T01:23:58;5.07;;;1.40;;
44842;SDS011;31884;52.538;13.820;2023-10-08T01:26:30;5.05;;;1.40;;
44842;SDS011;31884;52.538;13.820;2023-10-08T01:28:57;3.05;;;1.20;;
44842;SDS011;31884;52.538;13.820;2023-10-08T01:31:27;4.97;;;1.60;;
44842;SDS011;31884;52.538;13.820;2023-10-08T01:33:53;7.35;;;1.58;;
44842;SDS011;31884;52.538;13.820;2023-10-08T01:36:21;4.55;;;1.50;;
44842;SDS011;31884;52.538;13.820;2023-10-08T01:38:50;6.45;;;1.70;;
44842;SDS011;31884;52.538;13.820;2023-10-08T01:41:17;2.58;;;1.50;;
44842;SDS011;31884;52.538;13.820;2023-10-08T01:43:51;4.18;;;1.10;;
44842;SDS011;31884;52.538;13.820;2023-10-08T01:46:17;3.53;;;1.30;;
44842;SDS011;31884;52.538;13.820;2023-10-08T01:48:46;2.92;;;1.13;;
44842;SDS011;31884;52.538;13.820;2023-10-08T01:51:15;4.40;;;1.20;;
44842;SDS011;31884;52.538;13.820;2023-10-08T01:53:50;7.82;;;1.70;;
44842;SDS011;31884;52.538;13.820;2023-10-08T01:56:19;7.43;;;1.70;;
44842;SDS011;31884;52.538;13.820;2023-10-08T01:58:44;6.20;;;1.80;;
44842;SDS011;31884;52.538;13.820;2023-10-08T02:01:11;6.03;;;1.73;;
44842;SDS011;31884;52.538;13.820;2023-10-08T02:03:37;6.45;;;1.83;;
44842;SDS011;31884;52.538;13.820;2023-10-08T02:06:03;6.85;;;1.63;;
44842;SDS011;31884;52.538;13.820;2023-10-08T02:08:31;2.88;;;1.52;;
44842;SDS011;31884;52.538;13.820;2023-10-08T02:10:56;3.85;;;1.33;;
44842;SDS011;31884;52.538;13.820;2023-10-08T02:13:22;4.25;;;1.40;;
44842;SDS011;31884;52.538;13.820;2023-10-08T02:15:51;5.13;;;1.40;;
44842;SDS011;31884;52.538;13.820;2023-10-08T02:18:17;7.10;;;1.85;;
44842;SDS011;31884;52.538;13.820;2023-10-08T02:20:43;4.88;;;1.75;;
44842;SDS011;31884;52.538;13.820;2023-10-08T02:23:09;4.93;;;1.50;;
44842;SDS011;31884;52.538;13.820;2023-10-08T02:25:36;3.45;;;1.58;;
44842;SDS011;31884;52.538;13.820;2023-10-08T02:28:05;6.50;;;1.70;;
44842;SDS011;31884;52.538;13.820;2023-10-08T02:30:34;4.13;;;1.30;;
44842;SDS011;31884;52.538;13.820;2023-10-08T02:33:01;7.20;;;1.50;;
44842;SDS011;31884;52.538;13.820;2023-10-08T02:35:27;4.05;;;1.77;;
44842;SDS011;31884;52.538;13.820;2023-10-08T02:37:52;5.10;;;1.70;;
44842;SDS011;31884;52.538;13.820;2023-10-08T02:40:19;3.15;;;1.27;;
44842;SDS011;31884;52.538;13.820;2023-10-08T02:42:52;5.35;;;1.45;;
44842;SDS011;31884;52.538;13.820;2023-10-08T02:45:25;5.68;;;1.30;;
44842;SDS011;31884;52.538;13.820;2023-10-08T02:47:54;5.88;;;1.75;;
44842;SDS011;31884;52.538;13.820;2023-10-08T02:50:20;7.07;;;1.90;;
44842;SDS011;31884;52.538;13.820;2023-10-08T02:52:47;6.85;;;1.60;;
44842;SDS011;31884;52.538;13.820;2023-10-08T02:55:15;5.88;;;1.90;;
44842;SDS011;31884;52.538;13.820;2023-10-08T02:57:59;6.90;;;1.60;;
44842;SDS011;31884;52.538;13.820;2023-10-08T03:00:27;5.40;;;1.00;;
44842;SDS011;31884;52.538;13.820;2023-10-08T03:02:54;4.43;;;1.50;;
44842;SDS011;31884;52.538;13.820;2023-10-08T03:05:26;4.43;;;1.20;;
44842;SDS011;31884;52.538;13.820;2023-10-08T03:07:55;5.82;;;1.40;;
44842;SDS011;31884;52.538;13.820;2023-10-08T03:10:22;4.43;;;1.75;;
44842;SDS011;31884;52.538;13.820;2023-10-08T03:12:56;4.20;;;1.35;;
44842;SDS011;31884;52.538;13.820;2023-10-08T03:15:28;5.35;;;1.27;;
44842;SDS011;31884;52.538;13.820;2023-10-08T03:17:55;8.05;;;2.08;;
44842;SDS011;31884;52.538;13.820;2023-10-08T03:20:33;7.82;;;1.80;;
44842;SDS011;31884;52.538;13.820;2023-10-08T03:23:11;4.72;;;1.17;;
44842;SDS011;31884;52.538;13.820;2023-10-08T03:25:49;3.22;;;1.27;;
44842;SDS011;31884;52.538;13.820;2023-10-08T03:28:24;1.90;;;1.33;;
44842;SDS011;31884;52.538;13.820;2023-10-08T03:30:51;5.60;;;1.60;;
44842;SDS011;31884;52.538;13.820;2023-10-08T03:33:21;4.07;;;1.70;;
44842;SDS011;31884;52.538;13.820;2023-10-08T03:35:51;5.28;;;1.65;;
44842;SDS011;31884;52.538;13.820;2023-10-08T03:38:18;3.28;;;1.55;;
44842;SDS011;31884;52.538;13.820;2023-10-08T03:40:56;7.47;;;1.77;;
44842;SDS011;31884;52.538;13.820;2023-10-08T03:43:29;7.88;;;1.50;;
44842;SDS011;31884;52.538;13.820;2023-10-08T03:46:09;8.05;;;1.35;;
44842;SDS011;31884;52.538;13.820;2023-10-08T03:48:40;6.95;;;1.67;;
44842;SDS011;31884;52.538;13.820;2023-10-08T03:51:11;2.75;;;1.48;;
44842;SDS011;31884;52.538;13.820;2023-10-08T03:53:40;3.80;;;1.25;;
44842;SDS011;31884;52.538;13.820;2023-10-08T03:56:27;5.03;;;1.63;;
44842;SDS011;31884;52.538;13.820;2023-10-08T03:58:56;4.60;;;1.50;;
44842;SDS011;31884;52.538;13.820;2023-10-08T04:01:25;2.67;;;1.27;;
44842;SDS011;31884;52.538;13.820;2023-10-08T04:03:55;3.33;;;1.20;;
44842;SDS011;31884;52.538;13.820;2023-10-08T04:06:24;2.85;;;1.15;;
44842;SDS011;31884;52.538;13.820;2023-10-08T04:09:00;5.90;;;1.33;;
44842;SDS011;31884;52.538;13.820;2023-10-08T04:11:35;2.83;;;1.25;;
44842;SDS011;31884;52.538;13.820;2023-10-08T04:14:01;1.65;;;1.30;;
44842;SDS011;31884;52.538;13.820;2023-10-08T04:16:28;5.53;;;1.65;;
44842;SDS011;31884;52.538;13.820;2023-10-08T04:18:54;3.22;;;1.33;;
44842;SDS011;31884;52.538;13.820;2023-10-08T04:21:28;6.25;;;1.48;;
44842;SDS011;31884;52.538;13.820;2023-10-08T04:23:53;1.83;;;1.10;;
44842;SDS011;31884;52.538;13.820;2023-10-08T04:26:22;4.90;;;1.73;;
44842;SDS011;31884;52.538;13.820;2023-10-08T04:28:55;4.45;;;1.48;;
44842;SDS011;31884;52.538;13.820;2023-10-08T04:31:28;3.03;;;1.50;;
44842;SDS011;31884;52.538;13.820;2023-10-08T04:34:04;5.03;;;1.52;;
44842;SDS011;31884;52.538;13.820;2023-10-08T04:36:42;5.13;;;1.58;;
44842;SDS011;31884;52.538;13.820;2023-10-08T04:39:10;3.85;;;1.52;;
44842;SDS011;31884;52.538;13.820;2023-10-08T04:41:41;4.47;;;1.83;;
44842;SDS011;31884;52.538;13.820;2023-10-08T04:44:10;4.70;;;1.73;;
44842;SDS011;31884;52.538;13.820;2023-10-08T04:46:43;4.40;;;1.55;;
44842;SDS011;31884;52.538;13.820;2023-10-08T04:49:15;5.95;;;1.27;;
44842;SDS011;31884;52.538;13.820;2023-10-08T04:51:54;9.95;;;1.92;;
44842;SDS011;31884;52.538;13.820;2023-10-08T04:54:24;3.72;;;1.20;;
44842;SDS011;31884;52.538;13.820;2023-10-08T04:56:54;2.05;;;1.30;;
44842;SDS011;31884;52.538;13.820;2023-10-08T04:59:25;6.05;;;1.38;;
44842;SDS011;31884;52.538;13.820;2023-10-08T05:01:58;4.30;;;1.48;;
44842;SDS011;31884;52.538;13.820;2023-10-08T05:04:38;6.72;;;1.58;;
44842;SDS011;31884;52.538;13.820;2023-10-08T05:07:16;3.63;;;1.23;;
44842;SDS011;31884;52.538;13.820;2023-10-08T05:09:45;5.20;;;1.50;;
44842;SDS011;31884;52.538;13.820;2023-10-08T05:12:35;5.55;;;0.98;;
44842;SDS011;31884;52.538;13.820;2023-10-08T05:15:36;3.83;;;1.55;;
44842;SDS011;31884;52.538;13.820;2023-10-08T05:18:06;4.22;;;1.52;;
44842;SDS011;31884;52.538;13.820;2023-10-08T05:20:48;3.42;;;1.50;;
44842;SDS011;31884;52.538;13.820;2023-10-08T05:23:14;2.28;;;1.10;;
44842;SDS011;31884;52.538;13.820;2023-10-08T05:25:52;5.85;;;1.52;;
44842;SDS011;31884;52.538;13.820;2023-10-08T05:28:33;3.17;;;1.45;;
44842;SDS011;31884;52.538;13.820;2023-10-08T05:31:26;4.22;;;1.55;;
44842;SDS011;31884;52.538;13.820;2023-10-08T05:34:12;2.90;;;1.27;;
44842;SDS011;31884;52.538;13.820;2023-10-08T05:36:57;4.38;;;1.30;;
44842;SDS011;31884;52.538;13.820;2023-10-08T05:39:29;3.45;;;1.20;;
44842;SDS011;31884;52.538;13.820;2023-10-08T05:42:05;2.63;;;1.15;;
44842;SDS011;31884;52.538;13.820;2023-10-08T05:45:00;6.38;;;1.48;;
44842;SDS011;31884;52.538;13.820;2023-10-08T05:47:35;3.47;;;1.60;;
44842;SDS011;31884;52.538;13.820;2023-10-08T05:50:02;7.75;;;1.67;;
44842;SDS011;31884;52.538;13.820;2023-10-08T05:53:03;5.65;;;1.80;;
44842;SDS011;31884;52.538;13.820;2023-10-08T05:55:40;5.97;;;1.88;;
44842;SDS011;31884;52.538;13.820;2023-10-08T05:58:12;4.43;;;1.60;;
44842;SDS011;31884;52.538;13.820;2023-10-08T06:00:45;3.72;;;1.48;;
44842;SDS011;31884;52.538;13.820;2023-10-08T06:03:14;5.45;;;1.58;;
44842;SDS011;31884;52.538;13.820;2023-10-08T06:06:06;6.40;;;2.42;;
44842;SDS011;31884;52.538;13.820;2023-10-08T06:08:35;2.30;;;1.70;;
44842;SDS011;31884;52.538;13.820;2023-10-08T06:11:15;2.65;;;1.35;;
44842;SDS011;31884;52.538;13.820;2023-10-08T06:14:06;2.53;;;1.20;;
44842;SDS011;31884;52.538;13.820;2023-10-08T06:17:01;1.30;;;1.20;;
44842;SDS011;31884;52.538;13.820;2023-10-08T06:19:41;1.67;;;1.00;;
44842;SDS011;31884;52.538;13.820;2023-10-08T06:22:09;2.75;;;1.23;;
44842;SDS011;31884;52.538;13.820;2023-10-08T06:24:34;2.22;;;1.02;;
44842;SDS011;31884;52.538;13.820;2023-10-08T06:27:03;2.85;;;1.38;;
44842;SDS011;31884;52.538;13.820;2023-10-08T06:29:30;2.05;;;1.50;;
44842;SDS011;31884;52.538;13.820;2023-10-08T06:31:56;3.20;;;1.50;;
44842;SDS011;31884;52.538;13.820;2023-10-08T06:34:26;4.78;;;1.88;;
44842;SDS011;31884;52.538;13.820;2023-10-08T06:36:53;1.80;;;1.25;;
44842;SDS011;31884;52.538;13.820;2023-10-08T06:39:21;4.13;;;1.50;;
44842;SDS011;31884;52.538;13.820;2023-10-08T06:41:51;2.28;;;1.38;;
44842;SDS011;31884;52.538;13.820;2023-10-08T06:44:18;2.40;;;1.80;;
44842;SDS011;31884;52.538;13.820;2023-10-08T06:46:44;3.33;;;1.45;;
44842;SDS011;31884;52.538;13.820;2023-10-08T06:49:10;1.67;;;1.05;;
44842;SDS011;31884;52.538;13.820;2023-10-08T06:51:39;4.30;;;1.50;;
44842;SDS011;31884;52.538;13.820;2023-10-08T06:54:07;3.25;;;1.40;;
44842;SDS011;31884;52.538;13.820;2023-10-08T06:56:35;3.28;;;1.58;;
44842;SDS011;31884;52.538;13.820;2023-10-08T06:59:01;2.15;;;1.20;;
44842;SDS011;31884;52.538;13.820;2023-10-08T07:01:28;3.10;;;1.67;;
44842;SDS011;31884;52.538;13.820;2023-10-08T07:04:03;1.77;;;1.33;;
44842;SDS011;31884;52.538;13.820;2023-10-08T07:06:31;2.92;;;1.08;;
44842;SDS011;31884;52.538;13.820;2023-10-08T07:09:02;1.85;;;1.20;;
44842;SDS011;31884;52.538;13.820;2023-10-08T07:11:32;1.75;;;1.08;;
44842;SDS011;31884;52.538;13.820;2023-10-08T07:14:00;3.50;;;0.95;;
44842;SDS011;31884;52.538;13.820;2023-10-08T07:16:26;5.05;;;1.45;;
44842;SDS011;31884;52.538;13.820;2023-10-08T07:18:53;3.22;;;1.48;;
44842;SDS011;31884;52.538;13.820;2023-10-08T07:21:20;2.05;;;1.05;;
44842;SDS011;31884;52.538;13.820;2023-10-08T07:23:54;2.53;;;1.20;;
44842;SDS011;31884;52.538;13.820;2023-10-08T07:26:28;2.20;;;1.48;;
44842;SDS011;31884;52.538;13.820;2023-10-08T07:29:03;4.55;;;1.38;;
44842;SDS011;31884;52.538;13.820;2023-10-08T07:31:37;2.85;;;1.23;;
44842;SDS011;31884;52.538;13.820;2023-10-08T07:34:23;3.08;;;1.40;;
44842;SDS011;31884;52.538;13.820;2023-10-08T07:36:49;3.08;;;1.50;;
44842;SDS011;31884;52.538;13.820;2023-10-08T07:39:15;1.77;;;1.27;;
44842;SDS011;31884;52.538;13.820;2023-10-08T07:41:51;2.20;;;1.88;;
44842;SDS011;31884;52.538;13.820;2023-10-08T07:44:19;5.20;;;1.50;;
44842;SDS011;31884;52.538;13.820;2023-10-08T07:46:47;1.85;;;1.13;;
44842;SDS011;31884;52.538;13.820;2023-10-08T07:49:14;2.20;;;1.10;;
44842;SDS011;31884;52.538;13.820;2023-10-08T07:51:40;2.38;;;0.88;;
44842;SDS011;31884;52.538;13.820;2023-10-08T07:54:05;2.03;;;0.90;;
44842;SDS011;31884;52.538;13.820;2023-10-08T07:56:34;2.85;;;1.17;;
44842;SDS011;31884;52.538;13.820;2023-10-08T07:59:02;2.17;;;0.80;;
44842;SDS011;31884;52.538;13.820;2023-10-08T08:01:33;3.95;;;1.30;;
44842;SDS011;31884;52.538;13.820;2023-10-08T08:03:59;3.90;;;1.42;;
44842;SDS011;31884;52.538;13.820;2023-10-08T08:06:25;1.58;;;0.93;;
44842;SDS011;31884;52.538;13.820;2023-10-08T08:08:51;1.55;;;1.10;;
44842;SDS011;31884;52.538;13.820;2023-10-08T08:11:16;2.03;;;1.17;;
44842;SDS011;31884;52.538;13.820;2023-10-08T08:13:42;3.42;;;1.45;;
44842;SDS011;31884;52.538;13.820;2023-10-08T08:16:10;2.60;;;0.80;;
44842;SDS011;31884;52.538;13.820;2023-10-08T08:18:48;1.85;;;1.13;;
44842;SDS011;31884;52.538;13.820;2023-10-08T08:21:15;2.20;;;1.30;;
44842;SDS011;31884;52.538;13.820;2023-10-08T08:23:41;1.48;;;1.00;;
44842;SDS011;31884;52.538;13.820;2023-10-08T08:26:15;3.33;;;1.40;;
44842;SDS011;31884;52.538;13.820;2023-10-08T08:28:52;2.95;;;1.20;;
44842;SDS011;31884;52.538;13.820;2023-10-08T08:31:28;1.40;;;0.90;;
44842;SDS011;31884;52.538;13.820;2023-10-08T08:33:57;2.20;;;1.02;;
44842;SDS011;31884;52.538;13.820;2023-10-08T08:36:28;1.55;;;0.70;;
44842;SDS011;31884;52.538;13.820;2023-10-08T08:39:03;2.08;;;0.90;;
44842;SDS011;31884;52.538;13.820;2023-10-08T08:41:29;2.75;;;1.00;;
44842;SDS011;31884;52.538;13.820;2023-10-08T08:43:55;1.48;;;0.70;;
44842;SDS011;31884;52.538;13.820;2023-10-08T08:46:36;1.00;;;0.80;;
44842;SDS011;31884;52.538;13.820;2023-10-08T08:49:03;1.13;;;0.70;;
44842;SDS011;31884;52.538;13.820;2023-10-08T08:51:32;2.47;;;0.90;;
44842;SDS011;31884;52.538;13.820;2023-10-08T08:54:00;1.42;;;0.73;;
44842;SDS011;31884;52.538;13.820;2023-10-08T08:56:31;1.55;;;0.68;;
44842;SDS011;31884;52.538;13.820;2023-10-08T08:58:59;1.98;;;1.02;;
44842;SDS011;31884;52.538;13.820;2023-10-08T09:01:26;1.45;;;0.88;;
44842;SDS011;31884;52.538;13.820;2023-10-08T09:03:58;3.30;;;0.90;;
44842;SDS011;31884;52.538;13.820;2023-10-08T09:06:33;1.13;;;0.77;;
44842;SDS011;31884;52.538;13.820;2023-10-08T09:09:00;0.88;;;0.60;;
44842;SDS011;31884;52.538;13.820;2023-10-08T09:11:44;1.77;;;0.90;;
44842;SDS011;31884;52.538;13.820;2023-10-08T09:14:10;1.33;;;0.75;;
44842;SDS011;31884;52.538;13.820;2023-10-08T09:16:35;1.35;;;0.82;;
44842;SDS011;31884;52.538;13.820;2023-10-08T09:19:02;0.82;;;0.43;;
44842;SDS011;31884;52.538;13.820;2023-10-08T09:21:27;0.95;;;0.60;;
44842;SDS011;31884;52.538;13.820;2023-10-08T09:23:55;0.50;;;0.45;;
44842;SDS011;31884;52.538;13.820;2023-10-08T09:26:23;2.17;;;0.50;;
44842;SDS011;31884;52.538;13.820;2023-10-08T09:28:50;1.25;;;0.60;;
44842;SDS011;31884;52.538;13.820;2023-10-08T09:31:17;0.50;;;0.50;;
44842;SDS011;31884;52.538;13.820;2023-10-08T09:33:43;0.63;;;0.52;;
44842;SDS011;31884;52.538;13.820;2023-10-08T09:36:18;0.77;;;0.50;;
44842;SDS011;31884;52.538;13.820;2023-10-08T09:38:45;0.80;;;0.63;;
44842;SDS011;31884;52.538;13.820;2023-10-08T09:41:13;0.90;;;0.50;;
44842;SDS011;31884;52.538;13.820;2023-10-08T09:43:39;1.20;;;0.40;;
44842;SDS011;31884;52.538;13.820;2023-10-08T09:48:44;1.05;;;0.50;;
44842;SDS011;31884;52.538;13.820;2023-10-08T09:51:20;1.55;;;0.60;;
44842;SDS011;31884;52.538;13.820;2023-10-08T09:56:39;2.03;;;0.52;;
44842;SDS011;31884;52.538;13.820;2023-10-08T09:59:06;3.03;;;0.75;;
44842;SDS011;31884;52.538;13.820;2023-10-08T10:01:34;0.88;;;0.50;;
44842;SDS011;31884;52.538;13.820;2023-10-08T10:04:05;0.95;;;0.60;;
44842;SDS011;31884;52.538;13.820;2023-10-08T10:06:31;2.33;;;0.73;;
44842;SDS011;31884;52.538;13.820;2023-10-08T10:08:57;1.13;;;0.70;;
44842;SDS011;31884;52.538;13.820;2023-10-08T10:11:25;0.60;;;0.55;;
44842;SDS011;31884;52.538;13.820;2023-10-08T10:13:57;0.68;;;0.40;;
44842;SDS011;31884;52.538;13.820;2023-10-08T10:16:25;0.88;;;0.50;;
44842;SDS011;31884;52.538;13.820;2023-10-08T10:18:54;1.85;;;0.50;;
44842;SDS011;31884;52.538;13.820;2023-10-08T10:21:25;1.38;;;0.65;;
44842;SDS011;31884;52.538;13.820;2023-10-08T10:23:58;1.95;;;0.77;;
44842;SDS011;31884;52.538;13.820;2023-10-08T10:31:43;1.20;;;0.68;;
44842;SDS011;31884;52.538;13.820;2023-10-08T10:34:11;2.53;;;0.40;;
44842;SDS011;31884;52.538;13.820;2023-10-08T10:36:38;0.93;;;0.40;;
44842;SDS011;31884;52.538;13.820;2023-10-08T10:39:06;0.88;;;0.60;;
44842;SDS011;31884;52.538;13.820;2023-10-08T10:41:41;1.65;;;0.47;;
44842;SDS011;31884;52.538;13.820;2023-10-08T10:44:09;1.17;;;0.60;;
44842;SDS011;31884;52.538;13.820;2023-10-08T10:46:35;0.73;;;0.50;;
44842;SDS011;31884;52.538;13.820;2023-10-08T10:49:06;3.53;;;1.35;;
44842;SDS011;31884;52.538;13.820;2023-10-08T10:51:47;3.78;;;0.93;;
44842;SDS011;31884;52.538;13.820;2023-10-08T10:54:15;2.35;;;0.80;;
44842;SDS011;31884;52.538;13.820;2023-10-08T10:56:48;1.25;;;0.60;;
44842;SDS011;31884;52.538;13.820;2023-10-08T10:59:28;0.70;;;0.52;;
44842;SDS011;31884;52.538;13.820;2023-10-08T11:02:01;0.55;;;0.45;;
44842;SDS011;31884;52.538;13.820;2023-10-08T11:04:33;1.63;;;1.05;;
44842;SDS011;31884;52.538;13.820;2023-10-08T11:07:12;18.23;;;6.40;;
44842;SDS011;31884;52.538;13.820;2023-10-08T11:09:41;18.52;;;8.77;;
44842;SDS011;31884;52.538;13.820;2023-10-08T11:12:09;13.90;;;7.32;;
44842;SDS011;31884;52.538;13.820;2023-10-08T11:14:41;17.25;;;8.77;;
44842;SDS011;31884;52.538;13.820;2023-10-08T11:17:17;16.95;;;8.15;;
44842;SDS011;31884;52.538;13.820;2023-10-08T11:19:47;40.28;;;20.17;;
44842;SDS011;31884;52.538;13.820;2023-10-08T11:22:13;21.65;;;9.85;;
44842;SDS011;31884;52.538;13.820;2023-10-08T11:24:43;11.70;;;7.10;;
44842;SDS011;31884;52.538;13.820;2023-10-08T11:27:12;9.18;;;4.68;;
44842;SDS011;31884;52.538;13.820;2023-10-08T11:29:45;4.05;;;2.45;;
44842;SDS011;31884;52.538;13.820;2023-10-08T11:32:13;3.17;;;1.67;;
44842;SDS011;31884;52.538;13.820;2023-10-08T11:34:45;2.65;;;1.65;;
44842;SDS011;31884;52.538;13.820;2023-10-08T11:37:15;2.33;;;1.70;;
44842;SDS011;31884;52.538;13.820;2023-10-08T11:39:51;3.72;;;1.48;;
44842;SDS011;31884;52.538;13.820;2023-10-08T11:42:18;1.33;;;0.88;;
44842;SDS011;31884;52.538;13.820;2023-10-08T11:44:59;1.33;;;0.70;;
44842;SDS011;31884;52.538;13.820;2023-10-08T11:47:25;1.73;;;0.75;;
44842;SDS011;31884;52.538;13.820;2023-10-08T11:49:56;0.93;;;0.50;;
44842;SDS011;31884;52.538;13.820;2023-10-08T11:52:35;0.70;;;0.52;;
44842;SDS011;31884;52.538;13.820;2023-10-08T11:55:07;1.40;;;0.55;;
44842;SDS011;31884;52.538;13.820;2023-10-08T11:57:43;1.88;;;0.88;;
44842;SDS011;31884;52.538;13.820;2023-10-08T12:00:14;0.60;;;0.60;;
44842;SDS011;31884;52.538;13.820;2023-10-08T12:05:19;1.23;;;0.57;;
44842;SDS011;31884;52.538;13.820;2023-10-08T12:07:52;1.55;;;0.65;;
44842;SDS011;31884;52.538;13.820;2023-10-08T12:10:18;8.65;;;0.85;;
44842;SDS011;31884;52.538;13.820;2023-10-08T12:12:56;1.25;;;0.63;;
44842;SDS011;31884;52.538;13.820;2023-10-08T12:15:24;0.80;;;0.60;;
44842;SDS011;31884;52.538;13.820;2023-10-08T12:17:51;0.73;;;0.50;;
44842;SDS011;31884;52.538;13.820;2023-10-08T12:20:36;1.50;;;0.60;;
44842;SDS011;31884;52.538;13.820;2023-10-08T12:23:02;0.95;;;0.45;;
44842;SDS011;31884;52.538;13.820;2023-10-08T12:25:29;0.90;;;0.50;;
44842;SDS011;31884;52.538;13.820;2023-10-08T12:27:57;0.43;;;0.32;;
44842;SDS011;31884;52.538;13.820;2023-10-08T12:30:26;2.20;;;0.70;;
44842;SDS011;31884;52.538;13.820;2023-10-08T12:32:55;2.35;;;0.80;;
44842;SDS011;31884;52.538;13.820;2023-10-08T12:35:25;1.60;;;0.85;;
44842;SDS011;31884;52.538;13.820;2023-10-08T12:37:51;1.77;;;0.70;;
44842;SDS011;31884;52.538;13.820;2023-10-08T12:40:17;1.63;;;0.80;;
44842;SDS011;31884;52.538;13.820;2023-10-08T12:42:51;1.83;;;0.68;;
44842;SDS011;31884;52.538;13.820;2023-10-08T12:45:17;3.00;;;0.70;;
44842;SDS011;31884;52.538;13.820;2023-10-08T12:47:47;1.45;;;0.52;;
44842;SDS011;31884;52.538;13.820;2023-10-08T12:50:17;1.63;;;0.70;;
44842;SDS011;31884;52.538;13.820;2023-10-08T12:52:54;1.38;;;0.90;;
44842;SDS011;31884;52.538;13.820;2023-10-08T12:55:20;1.98;;;0.45;;
44842;SDS011;31884;52.538;13.820;2023-10-08T12:57:52;1.02;;;0.45;;
44842;SDS011;31884;52.538;13.820;2023-10-08T13:00:23;1.52;;;0.60;;
44842;SDS011;31884;52.538;13.820;2023-10-08T13:02:50;1.00;;;0.68;;
44842;SDS011;31884;52.538;13.820;2023-10-08T13:05:21;1.52;;;0.50;;
44842;SDS011;31884;52.538;13.820;2023-10-08T13:07:53;1.70;;;0.65;;
44842;SDS011;31884;52.538;13.820;2023-10-08T13:10:22;1.00;;;0.52;;
44842;SDS011;31884;52.538;13.820;2023-10-08T13:12:48;0.90;;;0.60;;
44842;SDS011;31884;52.538;13.820;2023-10-08T13:15:14;2.13;;;0.52;;
44842;SDS011;31884;52.538;13.820;2023-10-08T13:17:40;1.88;;;0.70;;
44842;SDS011;31884;52.538;13.820;2023-10-08T13:20:10;1.08;;;0.73;;
44842;SDS011;31884;52.538;13.820;2023-10-08T13:22:39;1.02;;;0.55;;
44842;SDS011;31884;52.538;13.820;2023-10-08T13:25:05;1.20;;;0.60;;
44842;SDS011;31884;52.538;13.820;2023-10-08T13:27:31;0.60;;;0.40;;
44842;SDS011;31884;52.538;13.820;2023-10-08T13:29:57;0.60;;;0.50;;
44842;SDS011;31884;52.538;13.820;2023-10-08T13:32:23;0.47;;;0.47;;
44842;SDS011;31884;52.538;13.820;2023-10-08T13:34:49;0.93;;;0.50;;
44842;SDS011;31884;52.538;13.820;2023-10-08T13:37:15;1.63;;;0.60;;
44842;SDS011;31884;52.538;13.820;2023-10-08T13:39:41;2.30;;;0.60;;
44842;SDS011;31884;52.538;13.820;2023-10-08T13:42:06;1.00;;;0.47;;
44842;SDS011;31884;52.538;13.820;2023-10-08T13:44:32;1.50;;;0.73;;
44842;SDS011;31884;52.538;13.820;2023-10-08T13:46:59;0.90;;;0.50;;
44842;SDS011;31884;52.538;13.820;2023-10-08T13:49:30;0.95;;;0.57;;
44842;SDS011;31884;52.538;13.820;2023-10-08T13:51:57;0.60;;;0.57;;
44842;SDS011;31884;52.538;13.820;2023-10-08T13:54:23;0.47;;;0.40;;
44842;SDS011;31884;52.538;13.820;2023-10-08T13:56:53;1.00;;;0.47;;
44842;SDS011;31884;52.538;13.820;2023-10-08T13:59:19;0.60;;;0.50;;
44842;SDS011;31884;52.538;13.820;2023-10-08T14:01:49;0.47;;;0.30;;
44842;SDS011;31884;52.538;13.820;2023-10-08T14:04:19;0.40;;;0.30;;
44842;SDS011;31884;52.538;13.820;2023-10-08T14:06:45;0.45;;;0.40;;
44842;SDS011;31884;52.538;13.820;2023-10-08T14:09:19;0.65;;;0.40;;
44842;SDS011;31884;52.538;13.820;2023-10-08T14:11:56;0.50;;;0.50;;
44842;SDS011;31884;52.538;13.820;2023-10-08T14:14:21;2.85;;;0.60;;
44842;SDS011;31884;52.538;13.820;2023-10-08T14:16:49;1.20;;;0.55;;
44842;SDS011;31884;52.538;13.820;2023-10-08T14:19:18;0.70;;;0.60;;
44842;SDS011;31884;52.538;13.820;2023-10-08T14:21:53;1.00;;;0.70;;
44842;SDS011;31884;52.538;13.820;2023-10-08T14:24:25;0.85;;;0.57;;
44842;SDS011;31884;52.538;13.820;2023-10-08T14:26:52;0.75;;;0.63;;
44842;SDS011;31884;52.538;13.820;2023-10-08T14:29:21;1.27;;;0.40;;
44842;SDS011;31884;52.538;13.820;2023-10-08T14:31:49;1.50;;;0.75;;
44842;SDS011;31884;52.538;13.820;2023-10-08T14:34:15;0.68;;;0.50;;
44842;SDS011;31884;52.538;13.820;2023-10-08T14:36:41;0.60;;;0.40;;
44842;SDS011;31884;52.538;13.820;2023-10-08T14:39:26;0.70;;;0.40;;
44842;SDS011;31884;52.538;13.820;2023-10-08T14:42:10;0.40;;;0.40;;
44842;SDS011;31884;52.538;13.820;2023-10-08T14:44:54;0.70;;;0.50;;
44842;SDS011;31884;52.538;13.820;2023-10-08T14:47:19;0.90;;;0.50;;
44842;SDS011;31884;52.538;13.820;2023-10-08T14:49:45;0.60;;;0.60;;
44842;SDS011;31884;52.538;13.820;2023-10-08T14:52:11;1.05;;;0.43;;
44842;SDS011;31884;52.538;13.820;2023-10-08T14:54:36;1.23;;;0.70;;
44842;SDS011;31884;52.538;13.820;2023-10-08T14:57:03;2.60;;;1.02;;
44842;SDS011;31884;52.538;13.820;2023-10-08T14:59:30;1.45;;;0.73;;
44842;SDS011;31884;52.538;13.820;2023-10-08T15:01:56;4.72;;;1.98;;
44842;SDS011;31884;52.538;13.820;2023-10-08T15:04:23;3.72;;;2.00;;
44842;SDS011;31884;52.538;13.820;2023-10-08T15:06:51;2.80;;;1.50;;